Time;durP1;ratioP1;P1;durP2;ratioP2;P2;SDS_P1;SDS_P2;PMS_P1;PMS_P2;Temp;Humidity;BMP_temperature;BMP_pressure;BME280_temperature;BME280_humidity;BME280_pressure;Samples;Min_cycle;Max_cycle;Signal;HPM_P1;HPM_P2
2023/07/21 00:03:14;;;;;;;8.73;4.15;;;;;;;;;;10282010;28;20043;-82
2023/07/21 00:08:24;;;;;;;7.82;4.10;;;;;;;;;;10283415;28;20093;-81
2023/07/21 00:13:25;;;;;;;13.90;3.72;;;;;;;;;;10282922;28;20050;-84
2023/07/21 00:18:28;;;;;;;7.78;3.55;;;;;;;;;;10282759;28;20030;-85
2023/07/21 00:23:31;;;;;;;5.72;3.40;;;;;;;;;;10282144;28;20023;-80
2023/07/21 00:28:31;;;;;;;4.50;3.60;;;;;;;;;;10282020;28;20506;-80
2023/07/21 00:33:32;;;;;;;8.45;4.07;;;;;;;;;;10300380;28;20118;-84
2023/07/21 00:38:34;;;;;;;11.77;3.22;;;;;;;;;;10290719;28;20034;-78
2023/07/21 00:43:34;;;;;;;12.80;5.30;;;;;;;;;;10289108;28;20042;-81
2023/07/21 00:48:35;;;;;;;15.48;4.45;;;;;;;;;;10289438;28;20029;-82
2023/07/21 00:53:36;;;;;;;7.75;3.58;;;;;;;;;;10289845;28;20027;-80
2023/07/21 00:58:41;;;;;;;7.57;4.28;;;;;;;;;;10280403;28;20039;-84
2023/07/21 01:03:49;;;;;;;9.45;3.45;;;;;;;;;;10300131;28;20117;-82
2023/07/21 01:08:49;;;;;;;6.97;3.80;;;;;;;;;;10287731;28;20031;-84
2023/07/21 01:13:53;;;;;;;9.02;4.20;;;;;;;;;;10299081;28;20035;-79
2023/07/21 01:18:55;;;;;;;9.73;4.20;;;;;;;;;;10290932;28;20023;-82
2023/07/21 01:24:02;;;;;;;13.48;4.50;;;;;;;;;;10237827;28;20043;-80
2023/07/21 01:29:05;;;;;;;9.07;4.15;;;;;;;;;;10267673;28;20067;-79
2023/07/21 01:34:09;;;;;;;5.80;3.78;;;;;;;;;;10267982;28;20039;-82
2023/07/21 01:39:10;;;;;;;7.15;4.38;;;;;;;;;;10273804;28;20047;-78
2023/07/21 01:44:10;;;;;;;13.13;4.53;;;;;;;;;;10279841;28;20055;-76
2023/07/21 01:49:12;;;;;;;8.82;3.88;;;;;;;;;;10283697;28;20050;-82
2023/07/21 01:54:18;;;;;;;7.35;4.32;;;;;;;;;;10290581;28;20254;-83
2023/07/21 01:59:19;;;;;;;9.10;5.18;;;;;;;;;;10268096;28;20026;-83
2023/07/21 02:04:19;;;;;;;9.13;3.93;;;;;;;;;;10275431;28;20030;-78
2023/07/21 02:09:20;;;;;;;7.57;4.45;;;;;;;;;;10287832;28;20023;-83
2023/07/21 02:14:22;;;;;;;7.50;4.40;;;;;;;;;;10267486;28;20035;-82
2023/07/21 02:19:23;;;;;;;7.70;3.63;;;;;;;;;;10278145;28;20121;-79
2023/07/21 02:24:27;;;;;;;9.70;4.28;;;;;;;;;;10265179;28;20027;-78
2023/07/21 02:29:28;;;;;;;7.80;4.88;;;;;;;;;;10287387;28;20027;-78
2023/07/21 02:34:29;;;;;;;6.07;4.18;;;;;;;;;;10267578;28;20022;-83
2023/07/21 02:39:32;;;;;;;6.15;4.18;;;;;;;;;;10270753;28;20038;-84
2023/07/21 02:44:32;;;;;;;11.43;4.72;;;;;;;;;;10282464;28;20070;-84
2023/07/21 02:49:33;;;;;;;7.75;4.07;;;;;;;;;;10267593;28;20106;-76
2023/07/21 02:54:33;;;;;;;8.25;4.30;;;;;;;;;;10243599;28;20417;-81
2023/07/21 02:59:34;;;;;;;10.63;4.10;;;;;;;;;;10302289;28;20030;-80
2023/07/21 03:04:36;;;;;;;9.52;3.92;;;;;;;;;;10292018;28;20030;-74
2023/07/21 03:09:36;;;;;;;11.63;4.82;;;;;;;;;;10303681;28;20141;-79
2023/07/21 03:14:37;;;;;;;6.47;3.95;;;;;;;;;;10294006;28;20111;-71
2023/07/21 03:19:37;;;;;;;10.15;4.47;;;;;;;;;;10293596;28;20416;-81
2023/07/21 03:24:39;;;;;;;7.18;4.22;;;;;;;;;;10293092;28;20062;-78
2023/07/21 03:29:40;;;;;;;8.82;4.30;;;;;;;;;;10288832;28;20591;-76
2023/07/21 03:34:40;;;;;;;9.83;4.77;;;;;;;;;;10292036;28;20102;-78
2023/07/21 03:39:43;;;;;;;11.68;5.60;;;;;;;;;;10283810;28;20019;-80
2023/07/21 03:44:47;;;;;;;10.90;4.35;;;;;;;;;;10282201;28;20049;-86
2023/07/21 03:49:47;;;;;;;10.60;4.57;;;;;;;;;;10281178;28;20021;-79
2023/07/21 03:54:48;;;;;;;8.63;4.72;;;;;;;;;;10281671;28;20049;-80
2023/07/21 03:59:48;;;;;;;9.07;5.03;;;;;;;;;;10266712;28;20042;-79
2023/07/21 04:04:53;;;;;;;10.93;4.95;;;;;;;;;;10251040;28;20061;-79
2023/07/21 04:09:55;;;;;;;7.50;5.35;;;;;;;;;;10282099;28;20019;-80
2023/07/21 04:14:56;;;;;;;11.45;5.05;;;;;;;;;;10270095;28;20027;-77
2023/07/21 04:19:57;;;;;;;6.78;4.65;;;;;;;;;;10282678;28;20493;-81
2023/07/21 04:24:58;;;;;;;10.45;4.90;;;;;;;;;;10265661;28;20474;-81
2023/07/21 04:29:59;;;;;;;8.98;4.78;;;;;;;;;;10244313;28;20035;-75
2023/07/21 04:34:59;;;;;;;11.77;5.20;;;;;;;;;;10283949;28;20232;-78
2023/07/21 04:40:04;;;;;;;13.45;5.60;;;;;;;;;;10285909;28;20041;-76
2023/07/21 04:45:11;;;;;;;9.40;5.28;;;;;;;;;;10272115;28;20051;-81
2023/07/21 04:50:11;;;;;;;10.73;4.55;;;;;;;;;;10242479;28;20028;-78
2023/07/21 04:55:11;;;;;;;12.45;4.40;;;;;;;;;;10247439;28;20031;-79
2023/07/21 05:00:13;;;;;;;7.88;4.18;;;;;;;;;;10250741;28;20401;-77
2023/07/21 05:05:15;;;;;;;10.60;4.13;;;;;;;;;;10263525;28;20027;-79
2023/07/21 05:10:15;;;;;;;6.90;4.03;;;;;;;;;;10253953;28;20082;-74
2023/07/21 05:15:15;;;;;;;13.38;4.97;;;;;;;;;;10242746;28;20027;-80
2023/07/21 05:20:16;;;;;;;10.63;5.25;;;;;;;;;;10266722;28;20023;-77
2023/07/21 05:25:17;;;;;;;10.63;4.90;;;;;;;;;;10270728;28;20015;-76
2023/07/21 05:30:19;;;;;;;8.82;3.60;;;;;;;;;;10263673;28;20031;-78
2023/07/21 05:35:21;;;;;;;10.52;3.95;;;;;;;;;;10266852;28;20027;-78
2023/07/21 05:40:21;;;;;;;12.50;4.43;;;;;;;;;;10247380;28;20423;-80
2023/07/21 05:45:22;;;;;;;12.50;3.95;;;;;;;;;;10259191;28;20050;-72
2023/07/21 05:50:22;;;;;;;11.50;4.35;;;;;;;;;;10260621;28;20570;-77
2023/07/21 05:55:22;;;;;;;4.97;4.20;;;;;;;;;;10253876;28;20491;-75
2023/07/21 06:00:22;;;;;;;11.30;4.15;;;;;;;;;;10258687;28;20451;-74
2023/07/21 06:05:23;;;;;;;7.32;4.07;;;;;;;;;;10256548;28;20024;-81
2023/07/21 06:10:23;;;;;;;7.03;3.87;;;;;;;;;;10277146;28;20125;-81
2023/07/21 06:15:26;;;;;;;10.30;4.23;;;;;;;;;;10264687;28;20051;-73
2023/07/21 06:20:26;;;;;;;8.50;3.80;;;;;;;;;;10248993;28;20019;-76
2023/07/21 06:25:28;;;;;;;10.68;3.85;;;;;;;;;;10248375;28;20517;-77
2023/07/21 06:30:29;;;;;;;10.00;4.03;;;;;;;;;;10252761;28;20023;-80
2023/07/21 06:35:31;;;;;;;9.63;3.90;;;;;;;;;;10255427;28;20111;-77
2023/07/21 06:40:33;;;;;;;7.82;4.30;;;;;;;;;;10244870;28;20027;-76
2023/07/21 06:45:39;;;;;;;7.80;3.35;;;;;;;;;;10257535;28;20102;-82
2023/07/21 06:50:39;;;;;;;12.03;4.23;;;;;;;;;;10255502;28;20100;-80
2023/07/21 06:55:39;;;;;;;9.63;4.07;;;;;;;;;;10245128;28;20039;-75
2023/07/21 07:00:40;;;;;;;15.83;4.73;;;;;;;;;;10249810;28;20026;-74
2023/07/21 07:05:44;;;;;;;11.07;3.63;;;;;;;;;;10250682;28;20027;-78
2023/07/21 07:10:48;;;;;;;7.32;3.85;;;;;;;;;;10235218;28;20054;-78
2023/07/21 07:15:50;;;;;;;10.63;4.20;;;;;;;;;;10254247;28;20023;-81
2023/07/21 07:20:51;;;;;;;12.75;3.85;;;;;;;;;;10264670;28;20039;-74
2023/07/21 07:25:52;;;;;;;9.18;4.03;;;;;;;;;;10241736;28;20047;-74
2023/07/21 07:30:53;;;;;;;9.75;4.45;;;;;;;;;;10248240;28;20027;-81
2023/07/21 07:35:54;;;;;;;12.27;4.07;;;;;;;;;;10261623;28;20507;-72
2023/07/21 07:40:59;;;;;;;12.02;3.55;;;;;;;;;;10247438;28;20110;-75
2023/07/21 07:46:00;;;;;;;9.00;3.47;;;;;;;;;;10243446;28;20089;-78
2023/07/21 07:51:04;;;;;;;9.20;4.10;;;;;;;;;;10248963;28;20657;-73
2023/07/21 07:56:04;;;;;;;13.77;3.20;;;;;;;;;;10251210;28;20022;-74
2023/07/21 08:01:13;;;;;;;10.00;3.00;;;;;;;;;;10251680;28;20035;-75
2023/07/21 08:06:13;;;;;;;9.15;3.25;;;;;;;;;;10257275;28;20029;-77
2023/07/21 08:11:14;;;;;;;12.38;2.88;;;;;;;;;;10243244;28;20034;-77
2023/07/21 08:16:15;;;;;;;15.32;3.22;;;;;;;;;;10241793;28;20023;-72
2023/07/21 08:21:22;;;;;;;9.82;2.95;;;;;;;;;;10243624;28;20031;-76
2023/07/21 08:26:23;;;;;;;13.48;3.85;;;;;;;;;;10260606;28;20515;-75
2023/07/21 08:31:23;;;;;;;13.63;2.97;;;;;;;;;;10266925;28;20030;-75
2023/07/21 08:36:24;;;;;;;9.70;2.53;;;;;;;;;;10248830;28;20035;-77
2023/07/21 08:41:25;;;;;;;12.20;2.72;;;;;;;;;;10243352;28;20063;-78
2023/07/21 08:46:26;;;;;;;7.90;2.55;;;;;;;;;;10244810;28;20090;-78
2023/07/21 08:51:26;;;;;;;12.25;3.10;;;;;;;;;;10262109;28;20027;-78
2023/07/21 08:56:27;;;;;;;6.18;2.78;;;;;;;;;;10255812;28;20380;-79
2023/07/21 09:01:27;;;;;;;7.90;2.33;;;;;;;;;;10254356;28;21731;-73
2023/07/21 09:06:27;;;;;;;11.43;2.65;;;;;;;;;;10252992;28;20023;-75
2023/07/21 09:11:34;;;;;;;8.32;2.33;;;;;;;;;;10248141;28;20027;-77
2023/07/21 09:16:38;;;;;;;7.43;2.00;;;;;;;;;;10259917;28;20011;-82
2023/07/21 09:21:38;;;;;;;9.10;2.53;;;;;;;;;;10252567;28;20022;-75
2023/07/21 09:26:39;;;;;;;7.30;2.17;;;;;;;;;;10258698;28;20015;-78
2023/07/21 09:31:39;;;;;;;9.83;2.40;;;;;;;;;;10250355;28;20033;-75
2023/07/21 09:36:44;;;;;;;8.17;2.30;;;;;;;;;;10254972;28;20471;-77
2023/07/21 09:41:45;;;;;;;5.55;2.17;;;;;;;;;;10251800;28;20062;-81
2023/07/21 09:46:46;;;;;;;6.25;2.50;;;;;;;;;;10240033;28;20024;-82
2023/07/21 09:51:48;;;;;;;8.70;2.03;;;;;;;;;;10252624;28;20379;-73
2023/07/21 09:56:51;;;;;;;9.57;2.20;;;;;;;;;;10254566;28;20027;-78
2023/07/21 10:01:53;;;;;;;6.57;2.20;;;;;;;;;;10262403;28;20658;-72
2023/07/21 10:06:58;;;;;;;5.30;1.90;;;;;;;;;;10231773;28;20031;-72
2023/07/21 10:12:11;;;;;;;8.80;2.50;;;;;;;;;;10246173;28;20030;-74
2023/07/21 10:17:22;;;;;;;14.03;3.00;;;;;;;;;;10261073;28;20023;-75
2023/07/21 10:22:24;;;;;;;5.93;2.50;;;;;;;;;;10258570;28;20027;-80
2023/07/21 10:27:26;;;;;;;4.95;2.22;;;;;;;;;;10252375;28;20107;-78
2023/07/21 10:32:26;;;;;;;6.97;2.10;;;;;;;;;;10271521;28;20402;-75
2023/07/21 10:37:30;;;;;;;6.75;2.13;;;;;;;;;;10250728;28;20024;-76
2023/07/21 10:42:31;;;;;;;9.65;2.10;;;;;;;;;;10257461;28;20051;-83
2023/07/21 10:47:33;;;;;;;8.55;2.45;;;;;;;;;;10250729;28;20114;-81
2023/07/21 10:52:33;;;;;;;5.70;2.13;;;;;;;;;;10272850;28;20031;-80
2023/07/21 10:57:34;;;;;;;8.07;2.60;;;;;;;;;;10267978;28;20020;-78
2023/07/21 11:02:38;;;;;;;6.57;2.40;;;;;;;;;;10239238;28;20134;-80
2023/07/21 11:07:40;;;;;;;5.65;2.00;;;;;;;;;;10247882;28;20285;-76
2023/07/21 11:12:41;;;;;;;6.07;2.70;;;;;;;;;;10243798;28;20024;-77
2023/07/21 11:17:41;;;;;;;12.17;2.97;;;;;;;;;;10250594;28;20045;-72
2023/07/21 11:22:42;;;;;;;7.45;2.95;;;;;;;;;;10260166;28;20030;-81
2023/07/21 11:27:43;;;;;;;9.17;3.33;;;;;;;;;;10263705;28;20419;-83
2023/07/21 11:32:43;;;;;;;7.78;3.15;;;;;;;;;;10258619;28;20030;-81
2023/07/21 11:37:44;;;;;;;8.40;3.37;;;;;;;;;;10243551;28;20425;-72
2023/07/21 11:42:45;;;;;;;12.52;3.83;;;;;;;;;;10252441;28;20038;-75
2023/07/21 11:47:46;;;;;;;9.40;3.50;;;;;;;;;;10241414;28;20094;-74
2023/07/21 11:52:47;;;;;;;9.10;3.47;;;;;;;;;;10239796;28;20023;-81
2023/07/21 11:57:47;;;;;;;10.60;4.07;;;;;;;;;;10264427;28;20022;-75
2023/07/21 12:02:47;;;;;;;13.93;4.25;;;;;;;;;;10248152;28;20098;-74
2023/07/21 12:07:48;;;;;;;9.27;3.38;;;;;;;;;;10223403;28;20023;-75
2023/07/21 12:12:50;;;;;;;9.10;3.40;;;;;;;;;;10246320;28;20407;-79
2023/07/21 12:17:50;;;;;;;12.35;3.20;;;;;;;;;;10243711;28;20451;-73
2023/07/21 12:22:51;;;;;;;7.65;2.80;;;;;;;;;;10240102;28;20522;-73
2023/07/21 12:27:51;;;;;;;18.58;3.33;;;;;;;;;;10240394;28;20012;-77
2023/07/21 12:32:51;;;;;;;6.22;2.95;;;;;;;;;;10244584;28;20089;-82
2023/07/21 12:37:52;;;;;;;12.95;3.80;;;;;;;;;;10246307;28;20399;-78
2023/07/21 12:42:52;;;;;;;8.27;3.22;;;;;;;;;;10242650;28;20101;-74
2023/07/21 12:47:52;;;;;;;11.63;4.10;;;;;;;;;;10244959;28;20027;-78
2023/07/21 12:52:52;;;;;;;14.98;4.05;;;;;;;;;;10243889;28;20058;-72
2023/07/21 12:57:53;;;;;;;10.82;3.92;;;;;;;;;;10246154;28;20607;-73
2023/07/21 13:02:53;;;;;;;12.90;3.60;;;;;;;;;;10240534;28;20424;-75
2023/07/21 13:07:53;;;;;;;7.00;3.28;;;;;;;;;;10258038;28;20034;-73
2023/07/21 13:12:54;;;;;;;15.10;3.80;;;;;;;;;;10238308;28;20031;-72
2023/07/21 13:17:54;;;;;;;9.87;3.00;;;;;;;;;;10257406;28;20031;-73
2023/07/21 13:22:54;;;;;;;9.93;3.78;;;;;;;;;;10257610;28;20438;-77
2023/07/21 13:27:55;;;;;;;9.60;3.23;;;;;;;;;;10254305;28;20026;-74
2023/07/21 13:32:56;;;;;;;12.93;3.67;;;;;;;;;;10240334;28;20695;-81
2023/07/21 13:37:56;;;;;;;7.60;3.73;;;;;;;;;;10241881;28;20066;-72
2023/07/21 13:42:56;;;;;;;15.30;3.60;;;;;;;;;;10247275;28;20126;-73
2023/07/21 13:47:56;;;;;;;6.97;3.35;;;;;;;;;;10252982;28;20035;-74
2023/07/21 13:52:57;;;;;;;7.40;3.55;;;;;;;;;;10250704;28;20028;-76
2023/07/21 13:57:57;;;;;;;7.10;3.45;;;;;;;;;;10249403;28;20131;-79
2023/07/21 14:02:57;;;;;;;9.70;3.50;;;;;;;;;;10272198;28;20031;-77
2023/07/21 14:07:57;;;;;;;8.23;3.42;;;;;;;;;;10263178;28;20027;-77
2023/07/21 14:12:58;;;;;;;12.97;4.00;;;;;;;;;;10254931;28;20170;-84
2023/07/21 14:17:58;;;;;;;10.85;3.65;;;;;;;;;;10258231;28;20027;-84
2023/07/21 14:22:58;;;;;;;10.85;3.40;;;;;;;;;;10249731;28;20027;-79
2023/07/21 14:27:58;;;;;;;9.98;3.40;;;;;;;;;;10264329;28;20110;-78
2023/07/21 14:32:59;;;;;;;9.27;3.40;;;;;;;;;;10269614;28;20439;-83
2023/07/21 14:37:59;;;;;;;9.80;3.35;;;;;;;;;;10260109;28;20031;-82
2023/07/21 14:42:59;;;;;;;9.88;3.67;;;;;;;;;;10251097;28;20566;-77
2023/07/21 14:48:00;;;;;;;7.82;3.40;;;;;;;;;;10265091;28;20035;-76
2023/07/21 14:53:00;;;;;;;10.60;4.50;;;;;;;;;;10246783;28;20038;-79
2023/07/21 14:58:00;;;;;;;9.85;2.92;;;;;;;;;;10254746;28;20035;-80
2023/07/21 15:03:02;;;;;;;14.63;3.23;;;;;;;;;;10256439;28;20435;-84
2023/07/21 15:08:02;;;;;;;12.93;3.13;;;;;;;;;;10252757;28;20093;-80
2023/07/21 15:13:02;;;;;;;9.60;3.60;;;;;;;;;;10242214;28;20058;-79
2023/07/21 15:18:03;;;;;;;9.03;3.03;;;;;;;;;;10254098;28;20089;-81
2023/07/21 15:23:03;;;;;;;8.20;3.37;;;;;;;;;;10249626;28;20027;-81
2023/07/21 15:28:04;;;;;;;10.25;3.05;;;;;;;;;;10254625;28;20495;-72
2023/07/21 15:33:05;;;;;;;9.48;3.50;;;;;;;;;;10267990;28;20027;-85
2023/07/21 15:38:06;;;;;;;11.90;3.35;;;;;;;;;;10253976;28;20035;-80
2023/07/21 15:43:06;;;;;;;10.30;3.38;;;;;;;;;;10269183;28;20039;-74
2023/07/21 15:48:08;;;;;;;6.97;3.05;;;;;;;;;;10259991;28;20025;-63
2023/07/21 15:53:08;;;;;;;10.98;3.50;;;;;;;;;;10249495;28;20023;-80
2023/07/21 15:58:08;;;;;;;6.43;3.30;;;;;;;;;;10247313;28;20480;-81
2023/07/21 16:03:10;;;;;;;11.40;3.70;;;;;;;;;;10263789;28;20026;-80
2023/07/21 16:08:11;;;;;;;10.32;3.60;;;;;;;;;;10264630;28;20043;-71
2023/07/21 16:13:11;;;;;;;20.55;3.35;;;;;;;;;;10284809;28;20173;-82
2023/07/21 16:18:13;;;;;;;9.35;3.35;;;;;;;;;;10248021;28;20038;-77
2023/07/21 16:23:14;;;;;;;13.82;3.55;;;;;;;;;;10260833;28;20019;-87
2023/07/21 16:28:15;;;;;;;8.57;3.55;;;;;;;;;;10266863;28;20070;-77
2023/07/21 16:33:16;;;;;;;12.10;4.43;;;;;;;;;;10278364;28;20082;-79
2023/07/21 16:38:17;;;;;;;9.10;3.25;;;;;;;;;;10331428;23;20081;-70
2023/07/21 16:43:17;;;;;;;9.20;3.33;;;;;;;;;;10304934;28;20030;-70
2023/07/21 16:48:17;;;;;;;14.98;3.97;;;;;;;;;;10312963;28;20054;-70
2023/07/21 16:53:18;;;;;;;14.15;3.80;;;;;;;;;;10306141;28;20010;-70
2023/07/21 16:58:18;;;;;;;12.50;4.45;;;;;;;;;;10304686;28;20029;-70
2023/07/21 17:03:18;;;;;;;10.40;4.37;;;;;;;;;;10306037;28;20531;-69
2023/07/21 17:08:19;;;;;;;10.90;3.70;;;;;;;;;;10308527;28;20021;-70
2023/07/21 17:13:19;;;;;;;14.07;4.63;;;;;;;;;;10313123;28;20030;-69
2023/07/21 17:18:19;;;;;;;20.80;5.20;;;;;;;;;;10312509;28;20248;-69
2023/07/21 17:23:19;;;;;;;12.18;4.13;;;;;;;;;;10310550;28;20324;-69
2023/07/21 17:28:20;;;;;;;11.23;3.95;;;;;;;;;;10313048;28;20022;-69
2023/07/21 17:33:20;;;;;;;15.35;4.18;;;;;;;;;;10310214;28;20030;-69
2023/07/21 17:38:20;;;;;;;15.50;4.75;;;;;;;;;;10307392;28;20055;-70
2023/07/21 17:43:20;;;;;;;16.65;6.22;;;;;;;;;;10310249;28;20022;-69
2023/07/21 17:48:21;;;;;;;10.23;4.28;;;;;;;;;;10307992;28;20030;-69
2023/07/21 17:53:22;;;;;;;12.88;4.40;;;;;;;;;;10314023;28;20045;-69
2023/07/21 17:58:23;;;;;;;14.80;5.18;;;;;;;;;;10313520;28;20064;-70
2023/07/21 18:03:23;;;;;;;18.15;5.38;;;;;;;;;;10312518;28;20018;-70
2023/07/21 18:08:26;;;;;;;17.03;4.10;;;;;;;;;;10309236;28;20034;-70
2023/07/21 18:13:27;;;;;;;10.95;5.47;;;;;;;;;;10310339;28;20255;-71
2023/07/21 18:18:29;;;;;;;13.00;4.78;;;;;;;;;;10315211;28;20114;-78
2023/07/21 18:23:29;;;;;;;9.75;4.10;;;;;;;;;;10316332;28;20577;-70
2023/07/21 18:28:30;;;;;;;14.85;5.03;;;;;;;;;;10306793;28;20057;-76
2023/07/21 18:33:30;;;;;;;16.35;5.30;;;;;;;;;;10317627;28;20022;-77
2023/07/21 18:38:31;;;;;;;18.87;5.67;;;;;;;;;;10315885;28;20062;-74
2023/07/21 18:43:31;;;;;;;17.38;4.68;;;;;;;;;;10315959;28;20018;-70
2023/07/21 18:48:32;;;;;;;18.23;4.82;;;;;;;;;;10309363;28;20058;-69
2023/07/21 18:53:32;;;;;;;18.67;5.20;;;;;;;;;;10306069;28;21828;-70
2023/07/21 18:58:32;;;;;;;20.57;4.70;;;;;;;;;;10305798;28;20027;-69
2023/07/21 19:03:32;;;;;;;16.30;5.15;;;;;;;;;;10301791;28;20026;-69
2023/07/21 19:08:33;;;;;;;11.88;3.63;;;;;;;;;;10310190;28;20042;-70
2023/07/21 19:13:33;;;;;;;11.20;3.55;;;;;;;;;;10307920;28;20539;-69
2023/07/21 19:18:34;;;;;;;12.33;3.63;;;;;;;;;;10306111;28;20210;-69
2023/07/21 19:23:37;;;;;;;15.23;4.80;;;;;;;;;;10307378;28;20093;-71
2023/07/21 19:28:38;;;;;;;12.90;3.70;;;;;;;;;;10304050;28;20038;-70
2023/07/21 19:33:40;;;;;;;12.17;4.13;;;;;;;;;;10310261;28;20026;-70
2023/07/21 19:38:40;;;;;;;7.65;3.72;;;;;;;;;;10307876;28;20304;-70
2023/07/21 19:43:40;;;;;;;16.38;5.05;;;;;;;;;;10305839;28;20015;-69
2023/07/21 19:48:41;;;;;;;14.03;3.83;;;;;;;;;;10304387;28;20041;-72
2023/07/21 19:53:41;;;;;;;7.80;3.47;;;;;;;;;;10302795;28;20049;-70
2023/07/21 19:58:42;;;;;;;12.60;4.80;;;;;;;;;;10303444;28;20031;-71
2023/07/21 20:03:42;;;;;;;13.15;3.88;;;;;;;;;;10302403;28;20742;-71
2023/07/21 20:08:43;;;;;;;13.75;3.38;;;;;;;;;;10315266;28;20312;-71
2023/07/21 20:13:43;;;;;;;8.00;3.83;;;;;;;;;;10302167;28;20077;-71
2023/07/21 20:18:43;;;;;;;11.43;3.75;;;;;;;;;;10309186;28;20142;-71
2023/07/21 20:23:43;;;;;;;10.57;3.55;;;;;;;;;;10310812;28;20030;-71
2023/07/21 20:28:44;;;;;;;18.37;5.13;;;;;;;;;;10300780;28;20097;-70
2023/07/21 20:33:44;;;;;;;10.02;4.55;;;;;;;;;;10306018;28;20270;-71
2023/07/21 20:38:44;;;;;;;6.17;3.80;;;;;;;;;;10302466;28;20369;-71
2023/07/21 20:43:45;;;;;;;16.65;4.00;;;;;;;;;;10308678;28;20038;-72
2023/07/21 20:48:46;;;;;;;10.80;4.25;;;;;;;;;;10322413;28;20034;-89
2023/07/21 20:53:46;;;;;;;10.70;3.90;;;;;;;;;;10324990;28;20026;-82
2023/07/21 20:58:47;;;;;;;13.13;4.30;;;;;;;;;;10327285;28;20026;-80
2023/07/21 21:03:47;;;;;;;13.05;3.95;;;;;;;;;;10327664;28;20026;-87
2023/07/21 21:08:48;;;;;;;18.13;4.22;;;;;;;;;;10327406;28;20300;-80
2023/07/21 21:13:48;;;;;;;8.98;3.80;;;;;;;;;;10318970;28;20015;-82
2023/07/21 21:18:48;;;;;;;10.70;4.43;;;;;;;;;;10324878;28;20032;-79
2023/07/21 21:23:49;;;;;;;14.75;5.15;;;;;;;;;;10339166;28;20018;-88
2023/07/21 21:28:49;;;;;;;13.32;4.40;;;;;;;;;;10329204;28;20045;-78
2023/07/21 21:33:49;;;;;;;7.13;3.73;;;;;;;;;;10313662;28;20430;-77
2023/07/21 21:38:50;;;;;;;13.03;4.80;;;;;;;;;;10318043;28;20248;-81
2023/07/21 21:43:50;;;;;;;7.85;4.68;;;;;;;;;;10329825;28;20034;-77
2023/07/21 21:48:50;;;;;;;10.45;5.15;;;;;;;;;;10327572;28;20120;-70
2023/07/21 21:53:51;;;;;;;12.00;4.72;;;;;;;;;;10343897;28;20022;-68
2023/07/21 21:58:51;;;;;;;11.67;4.37;;;;;;;;;;10340495;28;20121;-68
2023/07/21 22:03:52;;;;;;;12.90;4.78;;;;;;;;;;10340910;28;20389;-69
2023/07/21 22:08:52;;;;;;;11.17;4.43;;;;;;;;;;10335164;28;20034;-69
2023/07/21 22:13:52;;;;;;;13.65;5.13;;;;;;;;;;10335241;28;20283;-68
2023/07/21 22:18:52;;;;;;;16.20;5.05;;;;;;;;;;10306485;28;20025;-68
2023/07/21 22:23:53;;;;;;;10.50;4.20;;;;;;;;;;10314316;28;20034;-69
2023/07/21 22:28:53;;;;;;;7.93;4.35;;;;;;;;;;10340034;28;20045;-69
2023/07/21 22:33:54;;;;;;;11.55;5.95;;;;;;;;;;10339863;28;20022;-69
2023/07/21 22:38:54;;;;;;;10.70;4.63;;;;;;;;;;10314714;28;20054;-69
2023/07/21 22:43:56;;;;;;;12.30;5.03;;;;;;;;;;10339739;28;20297;-69
2023/07/21 22:48:56;;;;;;;9.15;4.70;;;;;;;;;;10339303;28;20046;-69
2023/07/21 22:53:56;;;;;;;24.55;16.88;;;;;;;;;;10337842;28;20022;-69
2023/07/21 22:58:57;;;;;;;9.40;4.38;;;;;;;;;;10338649;28;20026;-68
2023/07/21 23:03:57;;;;;;;8.27;3.75;;;;;;;;;;10338383;28;20236;-68
2023/07/21 23:08:57;;;;;;;11.32;4.13;;;;;;;;;;10312295;28;20029;-68
2023/07/21 23:13:58;;;;;;;8.57;4.57;;;;;;;;;;10313245;28;20030;-68
2023/07/21 23:18:58;;;;;;;8.10;4.60;;;;;;;;;;10323210;28;20074;-68
2023/07/21 23:23:59;;;;;;;12.88;4.43;;;;;;;;;;10334044;28;20022;-69
2023/07/21 23:28:59;;;;;;;10.15;4.35;;;;;;;;;;10320240;28;20041;-69
2023/07/21 23:34:00;;;;;;;10.27;4.57;;;;;;;;;;10331122;28;20019;-68
2023/07/21 23:39:00;;;;;;;17.00;5.13;;;;;;;;;;10297095;28;20049;-69
2023/07/21 23:44:01;;;;;;;17.33;5.25;;;;;;;;;;10297090;28;20038;-68
2023/07/21 23:49:01;;;;;;;17.42;5.25;;;;;;;;;;10295288;28;20105;-67
2023/07/21 23:54:01;;;;;;;19.30;6.17;;;;;;;;;;10295309;28;20022;-68
2023/07/21 23:59:02;;;;;;;16.03;4.70;;;;;;;;;;10296788;28;20347;-68
